Terminal Aerodrome Forecast
Issued by NWS

Home | Current Version | Previous Version | Graphics & Text | Print | Product List | Glossary On
Versions: 1 2 3 4 5 6 7 8 9 10 11 12
000
FTUS45 KGGW 230541
TAFSDY
TAF
KSDY 230541Z 2306/2406 01008KT P6SM SCT080
     FM231500 01009KT P6SM VCSH BKN070
     FM232100 35008KT P6SM -RA OVC035
     FM240500 VRB04KT P6SM FEW100=

USA.gov is the U.S. government's official web portal to all federal, state and local government web resources and services.